Time;durP1;ratioP1;P1;durP2;ratioP2;P2;SDS_P1;SDS_P2;PMS_P1;PMS_P2;Temp;Humidity;BMP_temperature;BMP_pressure;BME280_temperature;BME280_humidity;BME280_pressure;Samples;Min_cycle;Max_cycle;Signal;HPM_P1;HPM_P2
2023/09/06 00:00:43;;;;;;;15.43;11.85;;;;;;;;;;5070157;28;20048;-79
2023/09/06 00:03:10;;;;;;;16.17;12.48;;;;;;;;;;5069404;28;20119;-78
2023/09/06 00:05:36;;;;;;;13.15;11.85;;;;;;;;;;5066153;28;20388;-79
2023/09/06 00:08:03;;;;;;;14.05;12.65;;;;;;;;;;5056896;28;20056;-79
2023/09/06 00:10:29;;;;;;;14.45;12.68;;;;;;;;;;5046714;28;20114;-78
2023/09/06 00:12:55;;;;;;;14.82;12.57;;;;;;;;;;5050359;28;20084;-78
2023/09/06 00:15:21;;;;;;;14.70;13.13;;;;;;;;;;5048986;28;20056;-79
2023/09/06 00:17:47;;;;;;;15.68;13.15;;;;;;;;;;5047320;28;20095;-79
2023/09/06 00:20:20;;;;;;;14.70;13.10;;;;;;;;;;5053742;28;20041;-78
2023/09/06 00:22:47;;;;;;;17.08;13.63;;;;;;;;;;5067431;28;20045;-78
2023/09/06 00:25:13;;;;;;;15.55;12.57;;;;;;;;;;5061690;28;20049;-78
2023/09/06 00:27:41;;;;;;;14.73;13.07;;;;;;;;;;5058445;28;20147;-77
2023/09/06 00:30:07;;;;;;;14.73;13.10;;;;;;;;;;5051974;28;20512;-77
2023/09/06 00:32:33;;;;;;;13.70;11.95;;;;;;;;;;5048221;28;20136;-77
2023/09/06 00:35:00;;;;;;;12.93;11.50;;;;;;;;;;5048658;28;20049;-77
2023/09/06 00:37:34;;;;;;;15.23;11.20;;;;;;;;;;5046820;28;20067;-77
2023/09/06 00:40:00;;;;;;;12.55;11.25;;;;;;;;;;5055692;28;20113;-77
2023/09/06 00:42:30;;;;;;;13.43;11.25;;;;;;;;;;5054587;28;20040;-77
2023/09/06 00:44:56;;;;;;;13.57;11.70;;;;;;;;;;5065898;28;20056;-77
2023/09/06 00:47:22;;;;;;;12.05;10.85;;;;;;;;;;5060926;28;20384;-78
2023/09/06 00:49:48;;;;;;;12.63;11.23;;;;;;;;;;5058266;28;20056;-76
2023/09/06 00:52:16;;;;;;;13.60;12.05;;;;;;;;;;5050837;28;20504;-78
2023/09/06 00:54:42;;;;;;;13.82;11.93;;;;;;;;;;5066892;28;20055;-77
2023/09/06 00:57:08;;;;;;;13.35;11.90;;;;;;;;;;5057387;28;20048;-77
2023/09/06 00:59:34;;;;;;;13.98;12.48;;;;;;;;;;5056025;28;20048;-77
2023/09/06 01:02:00;;;;;;;14.63;11.85;;;;;;;;;;5064662;28;20041;-78
2023/09/06 01:04:26;;;;;;;16.17;12.52;;;;;;;;;;5054517;28;20037;-77
2023/09/06 01:06:55;;;;;;;15.05;12.45;;;;;;;;;;5062140;28;20445;-77
2023/09/06 01:09:21;;;;;;;14.43;12.93;;;;;;;;;;5069608;28;20052;-77
2023/09/06 01:11:47;;;;;;;16.33;13.25;;;;;;;;;;5051872;28;20110;-77
2023/09/06 01:14:13;;;;;;;14.35;12.85;;;;;;;;;;5065948;28;20048;-77
2023/09/06 01:16:45;;;;;;;16.05;14.05;;;;;;;;;;5037425;28;20056;-77
2023/09/06 01:19:12;;;;;;;15.18;13.05;;;;;;;;;;5051363;28;20044;-78
2023/09/06 01:21:58;;;;;;;15.23;12.88;;;;;;;;;;5038402;28;20131;-78
2023/09/06 01:24:25;;;;;;;16.00;14.30;;;;;;;;;;5061285;28;20094;-78
2023/09/06 01:26:52;;;;;;;15.00;13.40;;;;;;;;;;5041113;28;20099;-78
2023/09/06 01:29:18;;;;;;;15.00;13.38;;;;;;;;;;5059923;28;20049;-77
2023/09/06 01:31:44;;;;;;;15.77;14.18;;;;;;;;;;5055477;28;20056;-77
2023/09/06 01:34:10;;;;;;;14.95;13.35;;;;;;;;;;5060650;28;20372;-77
2023/09/06 01:36:37;;;;;;;15.40;13.82;;;;;;;;;;5059079;28;20045;-77
2023/09/06 01:39:06;;;;;;;16.30;13.77;;;;;;;;;;5053139;28;20049;-78
2023/09/06 01:41:32;;;;;;;15.13;13.50;;;;;;;;;;5057233;28;20053;-77
2023/09/06 01:44:00;;;;;;;14.70;13.20;;;;;;;;;;5051707;28;20401;-77
2023/09/06 01:46:26;;;;;;;14.55;13.02;;;;;;;;;;5050067;28;20045;-78
2023/09/06 01:48:52;;;;;;;18.17;13.40;;;;;;;;;;5048784;28;20144;-78
2023/09/06 01:51:18;;;;;;;16.30;13.60;;;;;;;;;;5063015;28;20613;-77
2023/09/06 01:53:44;;;;;;;16.48;13.60;;;;;;;;;;5049134;28;20479;-77
2023/09/06 01:56:10;;;;;;;14.45;12.95;;;;;;;;;;5055584;28;20110;-77
2023/09/06 01:58:37;;;;;;;15.75;13.57;;;;;;;;;;5066521;28;20048;-77
2023/09/06 02:01:07;;;;;;;15.38;13.80;;;;;;;;;;5067819;28;20119;-78
2023/09/06 02:03:33;;;;;;;15.23;12.65;;;;;;;;;;5066302;28;20412;-77
2023/09/06 02:06:04;;;;;;;15.73;14.13;;;;;;;;;;5067661;28;20048;-78
2023/09/06 02:08:30;;;;;;;15.60;13.95;;;;;;;;;;5050426;28;20523;-78
2023/09/06 02:10:56;;;;;;;14.38;12.93;;;;;;;;;;5064007;28;20033;-78
2023/09/06 02:13:22;;;;;;;13.93;12.50;;;;;;;;;;5059015;28;20086;-77
2023/09/06 02:15:48;;;;;;;13.68;12.20;;;;;;;;;;5050169;28;20194;-77
2023/09/06 02:18:17;;;;;;;13.75;11.65;;;;;;;;;;5054953;28;20036;-77
2023/09/06 02:20:44;;;;;;;13.90;12.40;;;;;;;;;;5067279;28;20037;-77
2023/09/06 02:23:10;;;;;;;15.15;12.07;;;;;;;;;;5051926;28;20048;-77
2023/09/06 02:25:36;;;;;;;13.57;12.02;;;;;;;;;;5049423;28;20041;-77
2023/09/06 02:28:07;;;;;;;15.40;12.35;;;;;;;;;;5062155;28;20036;-78
2023/09/06 02:30:36;;;;;;;13.32;10.90;;;;;;;;;;5068677;28;20052;-77
2023/09/06 02:33:04;;;;;;;14.52;11.98;;;;;;;;;;5052452;28;20050;-77
2023/09/06 02:35:30;;;;;;;13.45;11.32;;;;;;;;;;5067125;28;20499;-77
2023/09/06 02:37:56;;;;;;;13.40;11.52;;;;;;;;;;5068428;28;20430;-78
2023/09/06 02:40:22;;;;;;;14.82;10.20;;;;;;;;;;5069775;28;20072;-78
2023/09/06 02:42:49;;;;;;;11.43;9.20;;;;;;;;;;5065379;28;20040;-78
2023/09/06 02:45:15;;;;;;;10.82;9.55;;;;;;;;;;5049266;28;20040;-78
2023/09/06 02:47:48;;;;;;;11.55;10.00;;;;;;;;;;5047753;28;20040;-77
2023/09/06 02:50:18;;;;;;;10.82;9.38;;;;;;;;;;5047718;28;20052;-77
2023/09/06 02:52:47;;;;;;;10.35;9.35;;;;;;;;;;5042222;28;20044;-78
2023/09/06 02:55:13;;;;;;;14.20;9.07;;;;;;;;;;5049160;28;20048;-78
2023/09/06 02:57:43;;;;;;;13.20;8.95;;;;;;;;;;5070078;28;20582;-77
2023/09/06 03:00:25;;;;;;;10.38;8.98;;;;;;;;;;5069327;28;20052;-77
2023/09/06 03:03:07;;;;;;;10.35;9.23;;;;;;;;;;5066315;28;20056;-78
2023/09/06 03:05:42;;;;;;;9.90;8.90;;;;;;;;;;5068282;28;20496;-77
2023/09/06 03:08:09;;;;;;;13.57;9.30;;;;;;;;;;5067977;28;20098;-78
2023/09/06 03:10:35;;;;;;;11.68;9.18;;;;;;;;;;5054048;28;20052;-78
2023/09/06 03:13:02;;;;;;;12.63;9.00;;;;;;;;;;5047372;28;20049;-78
2023/09/06 03:15:28;;;;;;;15.10;9.05;;;;;;;;;;5048623;28;20045;-77
2023/09/06 03:18:01;;;;;;;12.02;9.10;;;;;;;;;;5045227;28;20052;-78
2023/09/06 03:20:43;;;;;;;9.90;8.90;;;;;;;;;;5056644;28;20739;-78
2023/09/06 03:23:20;;;;;;;10.23;9.05;;;;;;;;;;5064198;28;20076;-77
2023/09/06 03:25:47;;;;;;;12.02;9.18;;;;;;;;;;5059067;28;20067;-78
2023/09/06 03:28:14;;;;;;;10.43;9.00;;;;;;;;;;5050411;28;20036;-78
2023/09/06 03:30:40;;;;;;;10.07;8.30;;;;;;;;;;5048399;28;20049;-77
2023/09/06 03:33:07;;;;;;;11.13;8.48;;;;;;;;;;5065121;28;20144;-76
2023/09/06 03:35:33;;;;;;;12.05;8.50;;;;;;;;;;5073896;28;20058;-76
2023/09/06 03:37:59;;;;;;;9.38;8.25;;;;;;;;;;5068652;28;20048;-77
2023/09/06 03:40:34;;;;;;;10.77;8.20;;;;;;;;;;5066493;28;20048;-77
2023/09/06 03:43:04;;;;;;;11.38;8.30;;;;;;;;;;5053673;28;20100;-77
2023/09/06 03:45:30;;;;;;;9.98;8.98;;;;;;;;;;5059814;28;20045;-77
2023/09/06 03:47:57;;;;;;;11.75;9.02;;;;;;;;;;5060156;28;20068;-77
2023/09/06 03:50:26;;;;;;;12.00;9.25;;;;;;;;;;5065023;28;20388;-77
2023/09/06 03:52:52;;;;;;;10.65;9.55;;;;;;;;;;5057946;28;20484;-77
2023/09/06 03:55:18;;;;;;;11.77;10.52;;;;;;;;;;5063994;28;20052;-78
2023/09/06 03:57:44;;;;;;;12.05;10.82;;;;;;;;;;5064510;28;20055;-78
2023/09/06 04:02:56;;;;;;;16.45;12.02;;;;;;;;;;5048758;28;20575;-78
2023/09/06 04:05:25;;;;;;;12.55;11.10;;;;;;;;;;5048658;28;20070;-78
2023/09/06 04:07:58;;;;;;;15.85;11.50;;;;;;;;;;5028817;28;20057;-78
2023/09/06 04:10:25;;;;;;;12.45;10.85;;;;;;;;;;5052971;28;20189;-78
2023/09/06 04:12:53;;;;;;;11.75;10.35;;;;;;;;;;5067358;28;20543;-78
2023/09/06 04:15:22;;;;;;;11.45;10.13;;;;;;;;;;5065790;28;20056;-78
2023/09/06 04:17:58;;;;;;;10.88;9.77;;;;;;;;;;5067094;28;20045;-78
2023/09/06 04:20:26;;;;;;;;;;;;;;;;;;5067320;28;20485;-78
2023/09/06 04:22:54;;;;;;;14.05;10.30;;;;;;;;;;5069471;28;20308;-78
2023/09/06 04:25:22;;;;;;;14.18;10.68;;;;;;;;;;5071563;28;20040;-78
2023/09/06 04:27:49;;;;;;;15.50;10.50;;;;;;;;;;5054462;28;20554;-78
2023/09/06 04:30:16;;;;;;;12.68;11.35;;;;;;;;;;5050952;28;20102;-78
2023/09/06 04:32:44;;;;;;;14.45;11.52;;;;;;;;;;5057864;28;20052;-78
2023/09/06 04:35:10;;;;;;;12.90;11.27;;;;;;;;;;5051432;28;20053;-78
2023/09/06 04:37:38;;;;;;;16.02;10.38;;;;;;;;;;5050379;28;20041;-78
2023/09/06 04:40:06;;;;;;;12.95;10.82;;;;;;;;;;5067400;28;20053;-79
2023/09/06 04:42:32;;;;;;;13.77;10.98;;;;;;;;;;5048825;28;20180;-78
2023/09/06 04:44:58;;;;;;;12.63;11.20;;;;;;;;;;5051735;28;20116;-78
2023/09/06 04:47:24;;;;;;;13.07;10.95;;;;;;;;;;5050860;28;20056;-78
2023/09/06 04:49:50;;;;;;;12.85;10.57;;;;;;;;;;5069964;28;20055;-78
2023/09/06 04:52:16;;;;;;;13.40;11.70;;;;;;;;;;5055098;28;20056;-76
2023/09/06 04:54:43;;;;;;;16.73;13.02;;;;;;;;;;5061199;28;20041;-76
2023/09/06 04:57:10;;;;;;;15.65;13.00;;;;;;;;;;5056181;28;20098;-76
2023/09/06 04:59:37;;;;;;;13.82;12.25;;;;;;;;;;5069063;28;20126;-76
2023/09/06 05:02:04;;;;;;;15.25;12.15;;;;;;;;;;5071062;28;20047;-76
2023/09/06 05:04:34;;;;;;;13.65;10.95;;;;;;;;;;5069031;28;20177;-76
2023/09/06 05:07:00;;;;;;;12.32;10.07;;;;;;;;;;5070485;28;20111;-76
2023/09/06 05:09:26;;;;;;;13.02;9.23;;;;;;;;;;5070480;28;20067;-76
2023/09/06 05:11:52;;;;;;;13.65;9.25;;;;;;;;;;5072761;28;20485;-75
2023/09/06 05:14:19;;;;;;;12.70;8.95;;;;;;;;;;5052707;28;20103;-75
2023/09/06 05:16:45;;;;;;;13.32;8.30;;;;;;;;;;5049779;28;20049;-75
2023/09/06 05:19:14;;;;;;;10.60;8.00;;;;;;;;;;5051637;28;20405;-79
2023/09/06 05:21:40;;;;;;;11.15;7.85;;;;;;;;;;5054022;28;20116;-80
2023/09/06 05:24:06;;;;;;;10.82;7.88;;;;;;;;;;5072931;28;20084;-80
2023/09/06 05:26:36;;;;;;;11.50;7.40;;;;;;;;;;5071677;28;20127;-80
2023/09/06 05:29:04;;;;;;;15.15;8.15;;;;;;;;;;5054675;28;20049;-80
2023/09/06 05:31:30;;;;;;;10.23;7.53;;;;;;;;;;5070557;28;20045;-80
2023/09/06 05:33:56;;;;;;;11.95;7.88;;;;;;;;;;5067723;28;20037;-80
2023/09/06 05:36:22;;;;;;;11.65;7.32;;;;;;;;;;5058230;28;20036;-79
2023/09/06 05:38:48;;;;;;;9.57;7.70;;;;;;;;;;5061977;28;20080;-80
2023/09/06 05:41:15;;;;;;;12.13;7.95;;;;;;;;;;5058762;28;20102;-80
2023/09/06 05:43:46;;;;;;;11.05;7.93;;;;;;;;;;5059162;28;20048;-79
2023/09/06 05:46:13;;;;;;;12.30;7.93;;;;;;;;;;5068587;28;20075;-79
2023/09/06 05:48:41;;;;;;;9.07;7.38;;;;;;;;;;5069090;28;20105;-79
2023/09/06 05:51:07;;;;;;;9.77;7.40;;;;;;;;;;5066969;28;20464;-79
2023/09/06 05:53:33;;;;;;;8.80;7.40;;;;;;;;;;5068922;28;20414;-79
2023/09/06 05:55:59;;;;;;;9.63;7.55;;;;;;;;;;5068788;28;20234;-79
2023/09/06 05:58:25;;;;;;;8.27;6.95;;;;;;;;;;5068819;28;20061;-79
2023/09/06 06:00:55;;;;;;;9.25;6.93;;;;;;;;;;5062650;28;20080;-79
2023/09/06 06:03:21;;;;;;;9.45;6.93;;;;;;;;;;5062436;28;20378;-80
2023/09/06 06:05:51;;;;;;;11.35;6.80;;;;;;;;;;5056769;28;20098;-79
2023/09/06 06:08:17;;;;;;;10.20;6.57;;;;;;;;;;5067435;28;20128;-79
2023/09/06 06:10:43;;;;;;;8.82;7.13;;;;;;;;;;5043844;28;20056;-78
2023/09/06 06:13:11;;;;;;;9.63;7.00;;;;;;;;;;5048988;28;20049;-79
2023/09/06 06:15:37;;;;;;;9.98;6.32;;;;;;;;;;5049240;28;20053;-79
2023/09/06 06:18:05;;;;;;;8.95;6.78;;;;;;;;;;5049867;28;20036;-79
2023/09/06 06:20:31;;;;;;;11.68;8.85;;;;;;;;;;5065900;28;20088;-79
2023/09/06 06:22:58;;;;;;;11.63;8.82;;;;;;;;;;5066719;28;20182;-79
2023/09/06 06:25:24;;;;;;;12.23;7.28;;;;;;;;;;5061597;28;20060;-79
2023/09/06 06:27:51;;;;;;;10.45;6.85;;;;;;;;;;5046385;28;20092;-78
2023/09/06 06:30:18;;;;;;;10.63;6.57;;;;;;;;;;5059147;28;20091;-77
2023/09/06 06:32:44;;;;;;;7.88;6.05;;;;;;;;;;5068251;28;20052;-78
2023/09/06 06:35:12;;;;;;;11.23;6.60;;;;;;;;;;5066549;28;20079;-78
2023/09/06 06:37:38;;;;;;;9.95;5.88;;;;;;;;;;5062302;28;20049;-79
2023/09/06 06:40:05;;;;;;;11.02;6.10;;;;;;;;;;5061464;28;20101;-77
2023/09/06 06:42:33;;;;;;;9.82;6.10;;;;;;;;;;5066672;28;20052;-78
2023/09/06 06:44:59;;;;;;;7.75;6.03;;;;;;;;;;5063062;28;20349;-76
2023/09/06 06:47:26;;;;;;;8.13;6.07;;;;;;;;;;5069605;28;20075;-78
2023/09/06 06:49:54;;;;;;;8.63;5.55;;;;;;;;;;5066963;28;20378;-78
2023/09/06 06:52:20;;;;;;;10.05;6.22;;;;;;;;;;5068293;28;20365;-77
2023/09/06 06:54:47;;;;;;;9.00;5.50;;;;;;;;;;5066732;28;20488;-78
2023/09/06 06:57:13;;;;;;;7.82;5.65;;;;;;;;;;5036430;28;20041;-77
2023/09/06 06:59:39;;;;;;;8.90;5.70;;;;;;;;;;5053103;28;20057;-77
2023/09/06 07:02:05;;;;;;;10.30;5.75;;;;;;;;;;5067570;28;20046;-77
2023/09/06 07:04:31;;;;;;;8.07;5.43;;;;;;;;;;5069646;28;20127;-77
2023/09/06 07:06:57;;;;;;;9.93;5.22;;;;;;;;;;5065759;28;20127;-77
2023/09/06 07:09:24;;;;;;;8.85;5.50;;;;;;;;;;5062814;28;20047;-77
2023/09/06 07:11:50;;;;;;;7.20;5.30;;;;;;;;;;5070083;28;20143;-79
2023/09/06 07:14:16;;;;;;;6.30;4.68;;;;;;;;;;5065383;28;20068;-79
2023/09/06 07:16:42;;;;;;;10.18;5.20;;;;;;;;;;5059137;28;20067;-77
2023/09/06 07:19:08;;;;;;;9.23;5.60;;;;;;;;;;5064669;28;20127;-78
2023/09/06 07:21:34;;;;;;;8.52;5.28;;;;;;;;;;5053717;28;20434;-79
2023/09/06 07:24:00;;;;;;;8.20;5.00;;;;;;;;;;5067556;28;20056;-80
2023/09/06 07:26:26;;;;;;;11.93;5.10;;;;;;;;;;5055192;28;20067;-79
2023/09/06 07:28:53;;;;;;;9.43;5.13;;;;;;;;;;5058302;28;20605;-77
2023/09/06 07:31:20;;;;;;;7.20;4.72;;;;;;;;;;5065548;28;20408;-78
2023/09/06 07:33:46;;;;;;;10.43;4.90;;;;;;;;;;5051004;28;20060;-80
2023/09/06 07:36:14;;;;;;;5.90;4.30;;;;;;;;;;5049251;28;20044;-80
2023/09/06 07:38:40;;;;;;;9.05;4.90;;;;;;;;;;5057298;28;20102;-78
2023/09/06 07:41:07;;;;;;;7.07;4.60;;;;;;;;;;5054718;28;20599;-77
2023/09/06 07:43:34;;;;;;;7.82;4.90;;;;;;;;;;5063480;28;20419;-78
2023/09/06 07:46:01;;;;;;;9.00;5.10;;;;;;;;;;5066605;28;20189;-78
2023/09/06 07:48:30;;;;;;;8.48;4.78;;;;;;;;;;5066038;28;20071;-79
2023/09/06 07:50:57;;;;;;;8.02;4.65;;;;;;;;;;5051658;28;20049;-79
2023/09/06 07:53:25;;;;;;;7.47;4.30;;;;;;;;;;5052912;28;20373;-80
2023/09/06 07:55:51;;;;;;;6.38;3.90;;;;;;;;;;5058953;28;20053;-80
2023/09/06 07:58:17;;;;;;;7.80;3.97;;;;;;;;;;5065340;28;20489;-79
2023/09/06 08:00:44;;;;;;;5.97;3.80;;;;;;;;;;5066829;28;20049;-79
2023/09/06 08:03:10;;;;;;;6.15;3.50;;;;;;;;;;5067349;28;20542;-79
2023/09/06 08:05:37;;;;;;;6.13;3.40;;;;;;;;;;5048360;28;20473;-79
2023/09/06 08:08:04;;;;;;;6.43;3.47;;;;;;;;;;5066455;28;20147;-80
2023/09/06 08:10:30;;;;;;;6.20;3.55;;;;;;;;;;5066111;28;20056;-79
2023/09/06 08:12:56;;;;;;;6.45;3.78;;;;;;;;;;5067179;28;20115;-78
2023/09/06 08:15:23;;;;;;;4.53;3.45;;;;;;;;;;5066342;28;20404;-77
2023/09/06 08:17:49;;;;;;;5.07;2.88;;;;;;;;;;5065136;28;20376;-78
2023/09/06 08:20:15;;;;;;;5.65;3.60;;;;;;;;;;5063661;28;20053;-77
2023/09/06 08:22:42;;;;;;;5.70;3.25;;;;;;;;;;5061851;28;20095;-77
2023/09/06 08:25:09;;;;;;;5.53;3.15;;;;;;;;;;5058262;28;20366;-77
2023/09/06 08:27:35;;;;;;;6.82;3.45;;;;;;;;;;5045709;28;20343;-77
2023/09/06 08:30:01;;;;;;;6.18;3.30;;;;;;;;;;5062657;28;20056;-77
2023/09/06 08:32:27;;;;;;;6.78;3.25;;;;;;;;;;5066722;28;20044;-77
2023/09/06 08:34:53;;;;;;;5.72;3.40;;;;;;;;;;5074643;28;20497;-79
2023/09/06 08:37:19;;;;;;;7.22;3.40;;;;;;;;;;5061807;28;20372;-79
2023/09/06 08:39:45;;;;;;;4.43;3.13;;;;;;;;;;5048511;28;20041;-79
2023/09/06 08:42:11;;;;;;;6.88;3.10;;;;;;;;;;5054239;28;20044;-79
2023/09/06 08:44:39;;;;;;;6.53;3.05;;;;;;;;;;5063855;28;20133;-78
2023/09/06 08:47:08;;;;;;;7.55;3.00;;;;;;;;;;5063304;28;20096;-79
2023/09/06 08:49:35;;;;;;;5.43;2.70;;;;;;;;;;5062393;28;20040;-79
2023/09/06 08:52:03;;;;;;;5.53;2.72;;;;;;;;;;5060453;28;20141;-79
2023/09/06 08:54:29;;;;;;;5.93;2.90;;;;;;;;;;5062651;28;20064;-80
2023/09/06 08:56:56;;;;;;;5.82;3.10;;;;;;;;;;5061675;28;20374;-79
2023/09/06 08:59:22;;;;;;;8.38;2.78;;;;;;;;;;5063785;28;20048;-77
2023/09/06 09:01:48;;;;;;;5.95;2.72;;;;;;;;;;5049692;28;20061;-78
2023/09/06 09:04:17;;;;;;;9.68;3.13;;;;;;;;;;5059899;28;20502;-78
2023/09/06 09:06:43;;;;;;;12.20;3.17;;;;;;;;;;5065860;28;20131;-78
2023/09/06 09:09:16;;;;;;;11.57;2.60;;;;;;;;;;5059718;28;20096;-78
2023/09/06 09:11:48;;;;;;;4.47;2.60;;;;;;;;;;5062415;28;20041;-77
2023/09/06 09:14:21;;;;;;;6.00;2.40;;;;;;;;;;5070327;28;20120;-79
2023/09/06 09:16:57;;;;;;;6.43;2.78;;;;;;;;;;5048226;28;20044;-78
2023/09/06 09:19:23;;;;;;;12.32;2.60;;;;;;;;;;5055860;28;20056;-79
2023/09/06 09:21:50;;;;;;;7.47;2.60;;;;;;;;;;5063545;28;20126;-78
2023/09/06 09:24:24;;;;;;;4.55;2.10;;;;;;;;;;5061399;28;20048;-78
2023/09/06 09:26:51;;;;;;;7.30;2.60;;;;;;;;;;5071040;28;20584;-78
2023/09/06 09:29:17;;;;;;;5.03;2.33;;;;;;;;;;5070420;28;20058;-79
2023/09/06 09:31:44;;;;;;;4.50;2.10;;;;;;;;;;5068458;28;20040;-79
2023/09/06 09:34:11;;;;;;;6.63;2.70;;;;;;;;;;5070626;28;20131;-79
2023/09/06 09:36:38;;;;;;;7.40;2.20;;;;;;;;;;5067281;28;20543;-79
2023/09/06 09:39:08;;;;;;;4.28;1.98;;;;;;;;;;5061186;28;20546;-79
2023/09/06 09:41:34;;;;;;;6.03;2.30;;;;;;;;;;5069728;28;20108;-78
2023/09/06 09:44:13;;;;;;;4.22;2.28;;;;;;;;;;5068533;28;20062;-79
2023/09/06 09:46:39;;;;;;;5.57;2.03;;;;;;;;;;5072330;28;20083;-79
2023/09/06 09:49:10;;;;;;;5.70;2.55;;;;;;;;;;5066159;28;20041;-79
2023/09/06 09:51:36;;;;;;;3.28;2.00;;;;;;;;;;5048273;28;20106;-80
2023/09/06 09:54:04;;;;;;;6.47;2.05;;;;;;;;;;5052164;28;20148;-79
2023/09/06 09:56:31;;;;;;;4.68;2.08;;;;;;;;;;5049033;28;20531;-80
2023/09/06 09:58:58;;;;;;;2.90;1.90;;;;;;;;;;5068342;28;20045;-80
2023/09/06 10:01:24;;;;;;;4.00;2.20;;;;;;;;;;5067384;28;20400;-79
2023/09/06 10:03:55;;;;;;;4.45;2.10;;;;;;;;;;5067345;28;20106;-80
2023/09/06 10:06:22;;;;;;;7.20;2.33;;;;;;;;;;5068421;28;20044;-80
2023/09/06 10:08:48;;;;;;;4.15;2.13;;;;;;;;;;5072782;28;20048;-80
2023/09/06 10:11:16;;;;;;;6.72;2.20;;;;;;;;;;5071777;28;20089;-80
2023/09/06 10:13:42;;;;;;;5.07;2.10;;;;;;;;;;5055157;28;20055;-80
2023/09/06 10:16:08;;;;;;;6.07;2.20;;;;;;;;;;5059203;28;20076;-80
2023/09/06 10:18:35;;;;;;;4.75;2.30;;;;;;;;;;5063341;28;20051;-81
2023/09/06 10:21:04;;;;;;;4.95;2.20;;;;;;;;;;5068423;28;20480;-81
2023/09/06 10:23:31;;;;;;;4.07;1.85;;;;;;;;;;5069166;28;20065;-80
2023/09/06 10:25:59;;;;;;;7.97;2.22;;;;;;;;;;5067425;28;20123;-79
2023/09/06 10:28:31;;;;;;;7.13;2.05;;;;;;;;;;5067889;28;20044;-80
2023/09/06 10:31:07;;;;;;;5.10;2.10;;;;;;;;;;5050883;28;20090;-80
2023/09/06 10:33:36;;;;;;;4.43;2.20;;;;;;;;;;5050012;28;20408;-79
2023/09/06 10:36:09;;;;;;;7.38;2.05;;;;;;;;;;5065308;28;20032;-79
2023/09/06 10:38:51;;;;;;;3.93;1.97;;;;;;;;;;5048867;28;20052;-80
2023/09/06 10:41:18;;;;;;;3.70;2.05;;;;;;;;;;5065920;28;20055;-81
2023/09/06 10:43:44;;;;;;;5.68;2.22;;;;;;;;;;5067082;28;20092;-81
2023/09/06 10:46:10;;;;;;;3.92;1.80;;;;;;;;;;5061070;28;20041;-80
2023/09/06 10:48:36;;;;;;;4.22;1.90;;;;;;;;;;5054948;28;20532;-81
2023/09/06 10:51:07;;;;;;;5.00;2.10;;;;;;;;;;5063507;28;20040;-81
2023/09/06 10:53:40;;;;;;;3.28;1.88;;;;;;;;;;5066054;28;20056;-81
2023/09/06 10:56:07;;;;;;;2.85;1.70;;;;;;;;;;5068834;28;20084;-80
2023/09/06 10:58:37;;;;;;;6.00;2.00;;;;;;;;;;5068405;28;20049;-80
2023/09/06 11:01:12;;;;;;;2.65;1.90;;;;;;;;;;5064975;28;20048;-80
2023/09/06 11:03:38;;;;;;;4.03;2.00;;;;;;;;;;5062448;28;20271;-81
2023/09/06 11:06:04;;;;;;;5.63;1.90;;;;;;;;;;5054919;28;20081;-80
2023/09/06 11:08:31;;;;;;;4.50;1.98;;;;;;;;;;5048576;28;20401;-80
2023/09/06 11:11:01;;;;;;;4.35;1.88;;;;;;;;;;5063056;28;20088;-80
2023/09/06 11:13:32;;;;;;;3.17;1.83;;;;;;;;;;5067048;28;20059;-77
2023/09/06 11:15:58;;;;;;;5.00;1.90;;;;;;;;;;5071015;28;20446;-81
2023/09/06 11:18:26;;;;;;;6.68;1.90;;;;;;;;;;5069148;28;20053;-80
2023/09/06 11:20:52;;;;;;;4.50;2.15;;;;;;;;;;5063268;28;20125;-79
2023/09/06 11:23:18;;;;;;;5.53;2.20;;;;;;;;;;5064271;28;20061;-78
2023/09/06 11:25:45;;;;;;;7.55;2.00;;;;;;;;;;5067005;28;20084;-78
2023/09/06 11:28:16;;;;;;;5.75;1.98;;;;;;;;;;5065934;28;20369;-78
2023/09/06 11:30:44;;;;;;;6.07;2.00;;;;;;;;;;5062869;28;20507;-79
2023/09/06 11:33:11;;;;;;;3.17;1.80;;;;;;;;;;5062371;28;20044;-80
2023/09/06 11:35:40;;;;;;;5.40;2.10;;;;;;;;;;5049815;28;20056;-77
2023/09/06 11:38:12;;;;;;;4.20;1.80;;;;;;;;;;5058210;28;20059;-78
2023/09/06 11:40:41;;;;;;;6.70;2.08;;;;;;;;;;5068778;28;20052;-78
2023/09/06 11:43:10;;;;;;;3.55;1.90;;;;;;;;;;5072275;28;20084;-80
2023/09/06 11:45:38;;;;;;;5.60;2.10;;;;;;;;;;5054630;28;20056;-80
2023/09/06 11:48:07;;;;;;;5.45;1.77;;;;;;;;;;5049214;28;20041;-80
2023/09/06 11:50:44;;;;;;;3.30;1.90;;;;;;;;;;5051512;28;20048;-79
2023/09/06 11:53:10;;;;;;;4.60;2.00;;;;;;;;;;5064382;28;20048;-79
2023/09/06 11:55:42;;;;;;;3.63;2.00;;;;;;;;;;5063786;28;20083;-80
2023/09/06 11:58:18;;;;;;;4.32;1.90;;;;;;;;;;5048098;28;20054;-79
2023/09/06 12:00:50;;;;;;;3.83;2.00;;;;;;;;;;5064165;28;20055;-80
2023/09/06 12:03:16;;;;;;;3.72;1.80;;;;;;;;;;5062661;28;20131;-80
2023/09/06 12:05:44;;;;;;;5.85;1.83;;;;;;;;;;5066372;28;20143;-80
2023/09/06 12:08:15;;;;;;;3.33;1.90;;;;;;;;;;5047938;28;20392;-79
2023/09/06 12:10:43;;;;;;;3.08;1.70;;;;;;;;;;5065156;28;20052;-79
2023/09/06 12:13:09;;;;;;;3.53;1.80;;;;;;;;;;5062299;28;20049;-79
2023/09/06 12:15:35;;;;;;;2.90;1.88;;;;;;;;;;5064344;28;20052;-79
2023/09/06 12:18:03;;;;;;;3.67;1.70;;;;;;;;;;5061854;28;20055;-80
2023/09/06 12:20:29;;;;;;;2.50;1.67;;;;;;;;;;5044735;28;20052;-80
2023/09/06 12:22:56;;;;;;;6.10;1.90;;;;;;;;;;5068380;28;20189;-81
2023/09/06 12:25:23;;;;;;;2.83;1.70;;;;;;;;;;5070639;28;20052;-80
2023/09/06 12:27:49;;;;;;;3.35;1.80;;;;;;;;;;5067966;28;20056;-81
2023/09/06 12:30:21;;;;;;;3.70;1.90;;;;;;;;;;5068439;28;20131;-81
2023/09/06 12:32:47;;;;;;;3.65;1.60;;;;;;;;;;5066861;28;20103;-81
2023/09/06 12:35:13;;;;;;;3.40;1.90;;;;;;;;;;5066867;28;20044;-82
2023/09/06 12:37:40;;;;;;;3.47;1.80;;;;;;;;;;5067863;28;20131;-81
2023/09/06 12:40:11;;;;;;;2.67;1.80;;;;;;;;;;5050777;28;20144;-81
2023/09/06 12:42:44;;;;;;;4.38;1.80;;;;;;;;;;5068571;28;20045;-81
2023/09/06 12:45:27;;;;;;;5.28;1.80;;;;;;;;;;5071507;28;20488;-82
2023/09/06 12:47:53;;;;;;;3.95;1.80;;;;;;;;;;5071021;28;20051;-82
2023/09/06 12:50:20;;;;;;;5.50;1.95;;;;;;;;;;5068021;28;20136;-82
2023/09/06 12:52:46;;;;;;;3.47;1.80;;;;;;;;;;5065194;28;20055;-80
2023/09/06 12:55:12;;;;;;;2.95;1.80;;;;;;;;;;5060416;28;20041;-82
2023/09/06 12:57:38;;;;;;;7.07;2.13;;;;;;;;;;5062191;28;20049;-82
2023/09/06 13:00:10;;;;;;;4.75;2.10;;;;;;;;;;5071648;28;20136;-81
2023/09/06 13:02:36;;;;;;;3.97;1.83;;;;;;;;;;5068611;28;20056;-81
2023/09/06 13:05:03;;;;;;;2.72;1.73;;;;;;;;;;5069907;28;20082;-82
2023/09/06 13:07:29;;;;;;;5.53;1.80;;;;;;;;;;5071498;28;20052;-81
2023/09/06 13:09:55;;;;;;;4.63;1.98;;;;;;;;;;5070364;28;20048;-82
2023/09/06 13:12:21;;;;;;;5.53;2.15;;;;;;;;;;5087236;28;20392;-82
2023/09/06 13:14:47;;;;;;;3.97;2.03;;;;;;;;;;5070313;28;20163;-82
2023/09/06 13:17:14;;;;;;;4.50;1.98;;;;;;;;;;5086954;28;20092;-82
2023/09/06 13:19:44;;;;;;;4.97;1.90;;;;;;;;;;5070555;28;20120;-81
2023/09/06 13:22:12;;;;;;;3.03;1.80;;;;;;;;;;5070136;28;20256;-81
2023/09/06 13:24:38;;;;;;;4.28;2.00;;;;;;;;;;5070749;28;20531;-82
2023/09/06 13:27:04;;;;;;;6.38;1.80;;;;;;;;;;5071042;28;20099;-81
2023/09/06 13:29:30;;;;;;;5.30;1.90;;;;;;;;;;5070040;28;20522;-82
2023/09/06 13:31:57;;;;;;;4.05;1.85;;;;;;;;;;5069975;28;20087;-82
2023/09/06 13:34:23;;;;;;;4.55;1.85;;;;;;;;;;5068449;28;20131;-81
2023/09/06 13:36:49;;;;;;;3.15;1.80;;;;;;;;;;5069110;28;20048;-81
2023/09/06 13:39:17;;;;;;;6.15;1.83;;;;;;;;;;5070830;28;20055;-81
2023/09/06 13:41:43;;;;;;;5.60;1.85;;;;;;;;;;5051384;28;20071;-81
2023/09/06 13:44:09;;;;;;;3.10;1.85;;;;;;;;;;5050464;28;20049;-82
2023/09/06 13:46:36;;;;;;;4.57;2.10;;;;;;;;;;5051835;28;20435;-82
2023/09/06 13:49:07;;;;;;;3.58;1.80;;;;;;;;;;5033698;28;20041;-82
2023/09/06 13:51:34;;;;;;;4.40;1.90;;;;;;;;;;5050029;28;20056;-82
2023/09/06 13:54:00;;;;;;;3.38;2.05;;;;;;;;;;5053765;28;20429;-82
2023/09/06 13:56:26;;;;;;;4.82;1.90;;;;;;;;;;5050817;28;20508;-82
2023/09/06 13:58:52;;;;;;;6.07;2.08;;;;;;;;;;5050038;28;20106;-82
2023/09/06 14:01:18;;;;;;;4.70;1.90;;;;;;;;;;5049938;28;20052;-82
2023/09/06 14:03:44;;;;;;;4.43;1.70;;;;;;;;;;5049548;28;20123;-85
2023/09/06 14:06:10;;;;;;;3.45;1.70;;;;;;;;;;5048334;28;20041;-81
2023/09/06 14:08:36;;;;;;;3.83;1.90;;;;;;;;;;5048651;28;20060;-81
2023/09/06 14:11:05;;;;;;;4.03;1.88;;;;;;;;;;5049315;28;20519;-82
2023/09/06 14:13:31;;;;;;;6.53;1.83;;;;;;;;;;5049444;28;20178;-82
2023/09/06 14:15:58;;;;;;;3.78;1.70;;;;;;;;;;5050246;28;20489;-82
2023/09/06 14:18:24;;;;;;;4.47;1.98;;;;;;;;;;5046172;28;20053;-83
2023/09/06 14:20:50;;;;;;;4.38;1.77;;;;;;;;;;5033648;28;20128;-82
2023/09/06 14:23:16;;;;;;;6.93;1.73;;;;;;;;;;5050171;28;20102;-81
2023/09/06 14:25:42;;;;;;;2.85;1.65;;;;;;;;;;5071164;28;20052;-82
2023/09/06 14:28:08;;;;;;;3.22;1.80;;;;;;;;;;5072294;28;20127;-82
2023/09/06 14:30:39;;;;;;;5.07;1.63;;;;;;;;;;5068624;28;20134;-83
2023/09/06 14:33:05;;;;;;;3.33;1.60;;;;;;;;;;5071658;28;20040;-83
2023/09/06 14:35:37;;;;;;;2.78;1.48;;;;;;;;;;5070974;28;20075;-82
2023/09/06 14:38:03;;;;;;;3.75;1.98;;;;;;;;;;5073762;28;20120;-82